sensor_id;sensor_type;location;lat;lon;timestamp;P1;durP1;ratioP1;P2;durP2;ratioP2
13002;SDS011;66869;57.706;11.922;2023-04-25T00:02:00;1.58;;;0.82;;
13002;SDS011;66869;57.706;11.922;2023-04-25T00:04:26;1.35;;;0.60;;
13002;SDS011;66869;57.706;11.922;2023-04-25T00:06:52;1.15;;;0.50;;
13002;SDS011;66869;57.706;11.922;2023-04-25T00:09:17;0.65;;;0.43;;
13002;SDS011;66869;57.706;11.922;2023-04-25T00:11:42;0.80;;;0.80;;
13002;SDS011;66869;57.706;11.922;2023-04-25T00:14:08;0.40;;;0.40;;
13002;SDS011;66869;57.706;11.922;2023-04-25T00:16:33;1.30;;;1.00;;
13002;SDS011;66869;57.706;11.922;2023-04-25T00:19:00;0.50;;;0.40;;
13002;SDS011;66869;57.706;11.922;2023-04-25T00:21:26;1.17;;;0.70;;
13002;SDS011;66869;57.706;11.922;2023-04-25T00:23:53;0.65;;;0.65;;
13002;SDS011;66869;57.706;11.922;2023-04-25T00:26:18;0.40;;;0.40;;
13002;SDS011;66869;57.706;11.922;2023-04-25T00:28:43;1.20;;;0.82;;
13002;SDS011;66869;57.706;11.922;2023-04-25T00:31:09;1.95;;;0.75;;
13002;SDS011;66869;57.706;11.922;2023-04-25T00:33:34;1.73;;;0.77;;
13002;SDS011;66869;57.706;11.922;2023-04-25T00:36:00;0.60;;;0.60;;
13002;SDS011;66869;57.706;11.922;2023-04-25T00:38:25;0.70;;;0.60;;
13002;SDS011;66869;57.706;11.922;2023-04-25T00:40:50;0.90;;;0.90;;
13002;SDS011;66869;57.706;11.922;2023-04-25T00:43:16;0.57;;;0.57;;
13002;SDS011;66869;57.706;11.922;2023-04-25T00:45:41;0.90;;;0.70;;
13002;SDS011;66869;57.706;11.922;2023-04-25T00:48:07;0.43;;;0.43;;
13002;SDS011;66869;57.706;11.922;2023-04-25T00:50:33;1.58;;;0.60;;
13002;SDS011;66869;57.706;11.922;2023-04-25T00:52:59;0.60;;;0.60;;
13002;SDS011;66869;57.706;11.922;2023-04-25T00:55:25;0.68;;;0.68;;
13002;SDS011;66869;57.706;11.922;2023-04-25T00:57:50;0.40;;;0.40;;
13002;SDS011;66869;57.706;11.922;2023-04-25T01:00:16;0.57;;;0.50;;
13002;SDS011;66869;57.706;11.922;2023-04-25T01:02:41;0.73;;;0.73;;
13002;SDS011;66869;57.706;11.922;2023-04-25T01:05:07;0.70;;;0.70;;
13002;SDS011;66869;57.706;11.922;2023-04-25T01:07:33;1.05;;;0.95;;
13002;SDS011;66869;57.706;11.922;2023-04-25T01:09:59;0.70;;;0.70;;
13002;SDS011;66869;57.706;11.922;2023-04-25T01:12:24;1.00;;;0.93;;
13002;SDS011;66869;57.706;11.922;2023-04-25T01:14:49;0.80;;;0.80;;
13002;SDS011;66869;57.706;11.922;2023-04-25T01:17:15;0.90;;;0.85;;
13002;SDS011;66869;57.706;11.922;2023-04-25T01:19:41;1.17;;;0.85;;
13002;SDS011;66869;57.706;11.922;2023-04-25T01:22:06;1.13;;;1.02;;
13002;SDS011;66869;57.706;11.922;2023-04-25T01:24:31;1.63;;;1.27;;
13002;SDS011;66869;57.706;11.922;2023-04-25T01:26:58;0.85;;;0.80;;
13002;SDS011;66869;57.706;11.922;2023-04-25T01:29:23;0.73;;;0.73;;
13002;SDS011;66869;57.706;11.922;2023-04-25T01:31:49;0.80;;;0.80;;
13002;SDS011;66869;57.706;11.922;2023-04-25T01:34:15;0.98;;;0.70;;
13002;SDS011;66869;57.706;11.922;2023-04-25T01:36:40;1.95;;;0.95;;
13002;SDS011;66869;57.706;11.922;2023-04-25T01:39:06;1.23;;;0.88;;
13002;SDS011;66869;57.706;11.922;2023-04-25T01:41:31;0.93;;;0.93;;
13002;SDS011;66869;57.706;11.922;2023-04-25T01:43:57;0.82;;;0.82;;
13002;SDS011;66869;57.706;11.922;2023-04-25T01:46:22;0.90;;;0.90;;
13002;SDS011;66869;57.706;11.922;2023-04-25T01:48:47;1.00;;;0.75;;
13002;SDS011;66869;57.706;11.922;2023-04-25T01:51:13;0.73;;;0.73;;
13002;SDS011;66869;57.706;11.922;2023-04-25T01:53:38;2.05;;;0.90;;
13002;SDS011;66869;57.706;11.922;2023-04-25T01:56:04;1.10;;;1.10;;
13002;SDS011;66869;57.706;11.922;2023-04-25T01:58:30;1.98;;;0.70;;
13002;SDS011;66869;57.706;11.922;2023-04-25T02:00:55;0.93;;;0.70;;
13002;SDS011;66869;57.706;11.922;2023-04-25T02:03:20;0.50;;;0.50;;
13002;SDS011;66869;57.706;11.922;2023-04-25T02:05:45;0.32;;;0.30;;
13002;SDS011;66869;57.706;11.922;2023-04-25T02:08:11;0.55;;;0.55;;
13002;SDS011;66869;57.706;11.922;2023-04-25T02:10:36;0.52;;;0.52;;
13002;SDS011;66869;57.706;11.922;2023-04-25T02:13:01;0.28;;;0.28;;
13002;SDS011;66869;57.706;11.922;2023-04-25T02:15:27;0.47;;;0.47;;
13002;SDS011;66869;57.706;11.922;2023-04-25T02:17:52;0.50;;;0.50;;
13002;SDS011;66869;57.706;11.922;2023-04-25T02:20:18;1.20;;;1.15;;
13002;SDS011;66869;57.706;11.922;2023-04-25T02:22:44;0.68;;;0.68;;
13002;SDS011;66869;57.706;11.922;2023-04-25T02:25:10;0.40;;;0.40;;
13002;SDS011;66869;57.706;11.922;2023-04-25T02:27:36;2.20;;;0.40;;
13002;SDS011;66869;57.706;11.922;2023-04-25T02:30:01;0.82;;;0.60;;
13002;SDS011;66869;57.706;11.922;2023-04-25T02:32:27;0.50;;;0.50;;
13002;SDS011;66869;57.706;11.922;2023-04-25T02:34:53;2.47;;;0.50;;
13002;SDS011;66869;57.706;11.922;2023-04-25T02:37:18;0.45;;;0.45;;
13002;SDS011;66869;57.706;11.922;2023-04-25T02:39:44;0.52;;;0.52;;
13002;SDS011;66869;57.706;11.922;2023-04-25T02:42:09;0.50;;;0.50;;
13002;SDS011;66869;57.706;11.922;2023-04-25T02:44:34;0.63;;;0.60;;
13002;SDS011;66869;57.706;11.922;2023-04-25T02:46:59;0.50;;;0.50;;
13002;SDS011;66869;57.706;11.922;2023-04-25T02:49:25;0.60;;;0.60;;
13002;SDS011;66869;57.706;11.922;2023-04-25T02:51:50;0.60;;;0.60;;
13002;SDS011;66869;57.706;11.922;2023-04-25T02:54:16;0.63;;;0.63;;
13002;SDS011;66869;57.706;11.922;2023-04-25T02:56:41;0.50;;;0.50;;
13002;SDS011;66869;57.706;11.922;2023-04-25T02:59:06;0.70;;;0.70;;
13002;SDS011;66869;57.706;11.922;2023-04-25T03:01:32;0.77;;;0.60;;
13002;SDS011;66869;57.706;11.922;2023-04-25T03:03:57;0.55;;;0.55;;
13002;SDS011;66869;57.706;11.922;2023-04-25T03:06:22;0.60;;;0.60;;
13002;SDS011;66869;57.706;11.922;2023-04-25T03:08:47;1.13;;;0.98;;
13002;SDS011;66869;57.706;11.922;2023-04-25T03:11:13;0.93;;;0.80;;
13002;SDS011;66869;57.706;11.922;2023-04-25T03:13:38;0.75;;;0.63;;
13002;SDS011;66869;57.706;11.922;2023-04-25T03:16:03;0.82;;;0.82;;
13002;SDS011;66869;57.706;11.922;2023-04-25T03:18:29;0.68;;;0.60;;
13002;SDS011;66869;57.706;11.922;2023-04-25T03:20:54;0.65;;;0.65;;
13002;SDS011;66869;57.706;11.922;2023-04-25T03:23:19;0.32;;;0.32;;
13002;SDS011;66869;57.706;11.922;2023-04-25T03:25:45;0.52;;;0.52;;
13002;SDS011;66869;57.706;11.922;2023-04-25T03:28:10;2.38;;;0.73;;
13002;SDS011;66869;57.706;11.922;2023-04-25T03:30:35;0.75;;;0.47;;
13002;SDS011;66869;57.706;11.922;2023-04-25T03:33:01;0.55;;;0.52;;
13002;SDS011;66869;57.706;11.922;2023-04-25T03:35:26;0.60;;;0.35;;
13002;SDS011;66869;57.706;11.922;2023-04-25T03:37:51;0.57;;;0.57;;
13002;SDS011;66869;57.706;11.922;2023-04-25T03:40:16;0.68;;;0.68;;
13002;SDS011;66869;57.706;11.922;2023-04-25T03:42:42;0.55;;;0.52;;
13002;SDS011;66869;57.706;11.922;2023-04-25T03:45:07;0.57;;;0.57;;
13002;SDS011;66869;57.706;11.922;2023-04-25T03:47:32;0.50;;;0.50;;
13002;SDS011;66869;57.706;11.922;2023-04-25T03:49:58;0.50;;;0.50;;
13002;SDS011;66869;57.706;11.922;2023-04-25T03:52:25;0.80;;;0.70;;
13002;SDS011;66869;57.706;11.922;2023-04-25T03:54:50;0.38;;;0.38;;
13002;SDS011;66869;57.706;11.922;2023-04-25T03:57:16;0.60;;;0.60;;
13002;SDS011;66869;57.706;11.922;2023-04-25T03:59:41;0.43;;;0.43;;
13002;SDS011;66869;57.706;11.922;2023-04-25T04:02:06;0.63;;;0.63;;
13002;SDS011;66869;57.706;11.922;2023-04-25T04:04:31;0.65;;;0.60;;
13002;SDS011;66869;57.706;11.922;2023-04-25T04:06:57;0.45;;;0.45;;
13002;SDS011;66869;57.706;11.922;2023-04-25T04:09:22;0.50;;;0.50;;
13002;SDS011;66869;57.706;11.922;2023-04-25T04:11:47;0.50;;;0.50;;
13002;SDS011;66869;57.706;11.922;2023-04-25T04:14:12;0.43;;;0.43;;
13002;SDS011;66869;57.706;11.922;2023-04-25T04:16:38;0.50;;;0.50;;
13002;SDS011;66869;57.706;11.922;2023-04-25T04:19:03;0.68;;;0.68;;
13002;SDS011;66869;57.706;11.922;2023-04-25T04:21:29;0.32;;;0.32;;
13002;SDS011;66869;57.706;11.922;2023-04-25T04:23:55;0.60;;;0.60;;
13002;SDS011;66869;57.706;11.922;2023-04-25T04:26:20;0.50;;;0.50;;
13002;SDS011;66869;57.706;11.922;2023-04-25T04:28:48;0.70;;;0.70;;
13002;SDS011;66869;57.706;11.922;2023-04-25T04:31:14;1.23;;;0.52;;
13002;SDS011;66869;57.706;11.922;2023-04-25T04:33:41;1.27;;;0.52;;
13002;SDS011;66869;57.706;11.922;2023-04-25T04:36:07;1.65;;;0.77;;
13002;SDS011;66869;57.706;11.922;2023-04-25T04:38:32;0.60;;;0.50;;
13002;SDS011;66869;57.706;11.922;2023-04-25T04:40:58;0.40;;;0.40;;
13002;SDS011;66869;57.706;11.922;2023-04-25T04:43:23;0.30;;;0.30;;
13002;SDS011;66869;57.706;11.922;2023-04-25T04:45:49;0.20;;;0.20;;
13002;SDS011;66869;57.706;11.922;2023-04-25T04:48:16;0.20;;;0.20;;
13002;SDS011;66869;57.706;11.922;2023-04-25T04:50:45;0.65;;;0.40;;
13002;SDS011;66869;57.706;11.922;2023-04-25T04:53:10;34.40;;;6.10;;
13002;SDS011;66869;57.706;11.922;2023-04-25T04:55:36;42.35;;;8.68;;
13002;SDS011;66869;57.706;11.922;2023-04-25T04:58:01;30.23;;;7.05;;
13002;SDS011;66869;57.706;11.922;2023-04-25T05:00:26;39.47;;;7.15;;
13002;SDS011;66869;57.706;11.922;2023-04-25T05:02:52;38.53;;;9.75;;
13002;SDS011;66869;57.706;11.922;2023-04-25T05:05:17;28.05;;;5.88;;
13002;SDS011;66869;57.706;11.922;2023-04-25T05:07:42;27.08;;;5.40;;
13002;SDS011;66869;57.706;11.922;2023-04-25T05:10:08;28.35;;;6.65;;
13002;SDS011;66869;57.706;11.922;2023-04-25T05:12:33;21.77;;;4.65;;
13002;SDS011;66869;57.706;11.922;2023-04-25T05:14:58;21.23;;;5.55;;
13002;SDS011;66869;57.706;11.922;2023-04-25T05:17:24;20.20;;;5.20;;
13002;SDS011;66869;57.706;11.922;2023-04-25T05:19:49;16.00;;;4.43;;
13002;SDS011;66869;57.706;11.922;2023-04-25T05:22:14;16.60;;;3.55;;
13002;SDS011;66869;57.706;11.922;2023-04-25T05:24:40;13.07;;;3.30;;
13002;SDS011;66869;57.706;11.922;2023-04-25T05:27:05;15.35;;;3.80;;
13002;SDS011;66869;57.706;11.922;2023-04-25T05:29:30;13.50;;;3.50;;
13002;SDS011;66869;57.706;11.922;2023-04-25T05:31:56;12.93;;;3.10;;
13002;SDS011;66869;57.706;11.922;2023-04-25T05:34:21;9.45;;;2.67;;
13002;SDS011;66869;57.706;11.922;2023-04-25T05:36:46;12.38;;;2.83;;
13002;SDS011;66869;57.706;11.922;2023-04-25T05:39:13;12.15;;;2.40;;
13002;SDS011;66869;57.706;11.922;2023-04-25T05:41:39;9.95;;;2.28;;
13002;SDS011;66869;57.706;11.922;2023-04-25T05:44:04;3.97;;;1.98;;
13002;SDS011;66869;57.706;11.922;2023-04-25T05:46:30;5.97;;;2.00;;
13002;SDS011;66869;57.706;11.922;2023-04-25T05:48:55;6.57;;;1.90;;
13002;SDS011;66869;57.706;11.922;2023-04-25T05:51:21;5.15;;;1.92;;
13002;SDS011;66869;57.706;11.922;2023-04-25T05:53:46;11.02;;;2.05;;
13002;SDS011;66869;57.706;11.922;2023-04-25T05:56:11;4.57;;;1.55;;
13002;SDS011;66869;57.706;11.922;2023-04-25T05:58:36;5.15;;;1.50;;
13002;SDS011;66869;57.706;11.922;2023-04-25T06:01:02;4.97;;;1.73;;
13002;SDS011;66869;57.706;11.922;2023-04-25T06:03:27;3.30;;;1.10;;
13002;SDS011;66869;57.706;11.922;2023-04-25T06:05:53;4.65;;;1.55;;
13002;SDS011;66869;57.706;11.922;2023-04-25T06:08:18;2.47;;;1.23;;
13002;SDS011;66869;57.706;11.922;2023-04-25T06:10:44;4.47;;;1.17;;
13002;SDS011;66869;57.706;11.922;2023-04-25T06:13:09;3.90;;;1.45;;
13002;SDS011;66869;57.706;11.922;2023-04-25T06:15:34;2.88;;;1.23;;
13002;SDS011;66869;57.706;11.922;2023-04-25T06:18:00;5.80;;;1.20;;
13002;SDS011;66869;57.706;11.922;2023-04-25T06:20:25;2.92;;;0.98;;
13002;SDS011;66869;57.706;11.922;2023-04-25T06:22:50;3.17;;;0.90;;
13002;SDS011;66869;57.706;11.922;2023-04-25T06:25:19;3.38;;;0.90;;
13002;SDS011;66869;57.706;11.922;2023-04-25T06:27:44;2.80;;;0.95;;
13002;SDS011;66869;57.706;11.922;2023-04-25T06:30:10;1.20;;;0.73;;
13002;SDS011;66869;57.706;11.922;2023-04-25T06:32:37;1.35;;;0.60;;
13002;SDS011;66869;57.706;11.922;2023-04-25T06:35:02;1.88;;;0.73;;
13002;SDS011;66869;57.706;11.922;2023-04-25T06:37:28;2.92;;;0.90;;
13002;SDS011;66869;57.706;11.922;2023-04-25T06:39:54;1.27;;;0.50;;
13002;SDS011;66869;57.706;11.922;2023-04-25T06:42:19;2.08;;;0.70;;
13002;SDS011;66869;57.706;11.922;2023-04-25T06:44:44;1.10;;;0.52;;
13002;SDS011;66869;57.706;11.922;2023-04-25T06:47:10;1.02;;;0.70;;
13002;SDS011;66869;57.706;11.922;2023-04-25T06:49:35;1.15;;;0.50;;
13002;SDS011;66869;57.706;11.922;2023-04-25T06:52:00;1.25;;;0.60;;
13002;SDS011;66869;57.706;11.922;2023-04-25T06:54:26;1.67;;;0.60;;
13002;SDS011;66869;57.706;11.922;2023-04-25T06:56:53;1.02;;;0.68;;
13002;SDS011;66869;57.706;11.922;2023-04-25T06:59:19;0.50;;;0.32;;
13002;SDS011;66869;57.706;11.922;2023-04-25T07:01:44;0.77;;;0.43;;
13002;SDS011;66869;57.706;11.922;2023-04-25T07:04:10;0.82;;;0.50;;
13002;SDS011;66869;57.706;11.922;2023-04-25T07:06:35;0.32;;;0.32;;
13002;SDS011;66869;57.706;11.922;2023-04-25T07:09:03;1.10;;;0.40;;
13002;SDS011;66869;57.706;11.922;2023-04-25T07:11:28;0.75;;;0.38;;
13002;SDS011;66869;57.706;11.922;2023-04-25T07:13:53;1.20;;;0.40;;
13002;SDS011;66869;57.706;11.922;2023-04-25T07:16:19;0.68;;;0.40;;
13002;SDS011;66869;57.706;11.922;2023-04-25T07:18:44;0.43;;;0.40;;
13002;SDS011;66869;57.706;11.922;2023-04-25T07:21:09;0.45;;;0.20;;
13002;SDS011;66869;57.706;11.922;2023-04-25T07:23:35;1.35;;;0.20;;
13002;SDS011;66869;57.706;11.922;2023-04-25T07:26:00;0.20;;;0.20;;
13002;SDS011;66869;57.706;11.922;2023-04-25T07:28:25;1.02;;;0.38;;
13002;SDS011;66869;57.706;11.922;2023-04-25T07:30:50;0.25;;;0.20;;
13002;SDS011;66869;57.706;11.922;2023-04-25T07:33:16;0.52;;;0.25;;
13002;SDS011;66869;57.706;11.922;2023-04-25T07:35:42;0.38;;;0.20;;
13002;SDS011;66869;57.706;11.922;2023-04-25T07:38:07;0.32;;;0.20;;
13002;SDS011;66869;57.706;11.922;2023-04-25T07:40:33;0.32;;;0.30;;
13002;SDS011;66869;57.706;11.922;2023-04-25T07:42:59;0.85;;;0.30;;
13002;SDS011;66869;57.706;11.922;2023-04-25T07:45:24;0.52;;;0.30;;
13002;SDS011;66869;57.706;11.922;2023-04-25T07:47:49;1.38;;;0.30;;
13002;SDS011;66869;57.706;11.922;2023-04-25T07:50:15;0.50;;;0.30;;
13002;SDS011;66869;57.706;11.922;2023-04-25T07:52:40;0.35;;;0.10;;
13002;SDS011;66869;57.706;11.922;2023-04-25T07:55:06;0.63;;;0.30;;
13002;SDS011;66869;57.706;11.922;2023-04-25T07:57:31;0.20;;;0.17;;
13002;SDS011;66869;57.706;11.922;2023-04-25T07:59:56;0.15;;;0.10;;
13002;SDS011;66869;57.706;11.922;2023-04-25T08:02:21;0.65;;;0.30;;
13002;SDS011;66869;57.706;11.922;2023-04-25T08:04:47;0.10;;;0.10;;
13002;SDS011;66869;57.706;11.922;2023-04-25T08:07:14;0.70;;;0.10;;
13002;SDS011;66869;57.706;11.922;2023-04-25T08:09:40;0.20;;;0.10;;
13002;SDS011;66869;57.706;11.922;2023-04-25T08:12:05;0.20;;;0.20;;
13002;SDS011;66869;57.706;11.922;2023-04-25T08:14:30;0.77;;;0.40;;
13002;SDS011;66869;57.706;11.922;2023-04-25T08:17:00;0.50;;;0.20;;
13002;SDS011;66869;57.706;11.922;2023-04-25T08:19:26;0.10;;;0.10;;
13002;SDS011;66869;57.706;11.922;2023-04-25T08:21:51;0.40;;;0.20;;
13002;SDS011;66869;57.706;11.922;2023-04-25T08:24:16;0.75;;;0.22;;
13002;SDS011;66869;57.706;11.922;2023-04-25T08:26:42;0.30;;;0.30;;
13002;SDS011;66869;57.706;11.922;2023-04-25T08:29:07;0.10;;;0.10;;
13002;SDS011;66869;57.706;11.922;2023-04-25T08:31:32;0.30;;;0.15;;
13002;SDS011;66869;57.706;11.922;2023-04-25T08:33:57;0.20;;;0.10;;
13002;SDS011;66869;57.706;11.922;2023-04-25T08:36:23;0.30;;;0.10;;
13002;SDS011;66869;57.706;11.922;2023-04-25T08:38:48;0.65;;;0.17;;
13002;SDS011;66869;57.706;11.922;2023-04-25T08:41:14;0.30;;;0.30;;
13002;SDS011;66869;57.706;11.922;2023-04-25T08:43:41;0.15;;;0.13;;
13002;SDS011;66869;57.706;11.922;2023-04-25T08:46:07;0.13;;;0.10;;
13002;SDS011;66869;57.706;11.922;2023-04-25T08:48:33;0.22;;;0.10;;
13002;SDS011;66869;57.706;11.922;2023-04-25T08:51:01;0.20;;;0.10;;
13002;SDS011;66869;57.706;11.922;2023-04-25T08:53:28;0.40;;;0.10;;
13002;SDS011;66869;57.706;11.922;2023-04-25T08:55:55;0.30;;;0.20;;
13002;SDS011;66869;57.706;11.922;2023-04-25T08:58:20;0.08;;;0.08;;
13002;SDS011;66869;57.706;11.922;2023-04-25T09:00:46;0.22;;;0.20;;
13002;SDS011;66869;57.706;11.922;2023-04-25T09:03:12;0.20;;;0.10;;
13002;SDS011;66869;57.706;11.922;2023-04-25T09:05:37;0.10;;;0.10;;
13002;SDS011;66869;57.706;11.922;2023-04-25T09:08:05;0.40;;;0.10;;
13002;SDS011;66869;57.706;11.922;2023-04-25T09:10:30;0.10;;;0.10;;
13002;SDS011;66869;57.706;11.922;2023-04-25T09:13:02;0.10;;;0.10;;
13002;SDS011;66869;57.706;11.922;2023-04-25T09:15:29;0.75;;;0.20;;
13002;SDS011;66869;57.706;11.922;2023-04-25T09:17:55;0.10;;;0.10;;
13002;SDS011;66869;57.706;11.922;2023-04-25T09:20:20;0.10;;;0.10;;
13002;SDS011;66869;57.706;11.922;2023-04-25T09:22:46;0.10;;;0.10;;
13002;SDS011;66869;57.706;11.922;2023-04-25T09:25:11;0.32;;;0.00;;
13002;SDS011;66869;57.706;11.922;2023-04-25T09:27:48;0.10;;;0.10;;
13002;SDS011;66869;57.706;11.922;2023-04-25T09:30:15;0.57;;;0.15;;
13002;SDS011;66869;57.706;11.922;2023-04-25T09:32:41;0.20;;;0.10;;
13002;SDS011;66869;57.706;11.922;2023-04-25T09:35:07;0.13;;;0.10;;
13002;SDS011;66869;57.706;11.922;2023-04-25T09:37:33;0.20;;;0.20;;
13002;SDS011;66869;57.706;11.922;2023-04-25T09:39:59;0.30;;;0.17;;
13002;SDS011;66869;57.706;11.922;2023-04-25T09:42:25;0.10;;;0.10;;
13002;SDS011;66869;57.706;11.922;2023-04-25T09:44:53;0.15;;;0.15;;
13002;SDS011;66869;57.706;11.922;2023-04-25T09:47:18;0.43;;;0.20;;
13002;SDS011;66869;57.706;11.922;2023-04-25T09:49:46;0.10;;;0.03;;
13002;SDS011;66869;57.706;11.922;2023-04-25T09:52:18;0.20;;;0.10;;
13002;SDS011;66869;57.706;11.922;2023-04-25T09:54:44;0.75;;;0.10;;
13002;SDS011;66869;57.706;11.922;2023-04-25T09:57:14;0.30;;;0.10;;
13002;SDS011;66869;57.706;11.922;2023-04-25T09:59:42;0.00;;;0.00;;
13002;SDS011;66869;57.706;11.922;2023-04-25T10:02:08;0.30;;;0.10;;
13002;SDS011;66869;57.706;11.922;2023-04-25T10:04:35;0.10;;;0.10;;
13002;SDS011;66869;57.706;11.922;2023-04-25T10:07:01;0.10;;;0.05;;
13002;SDS011;66869;57.706;11.922;2023-04-25T10:09:26;0.00;;;0.00;;
13002;SDS011;66869;57.706;11.922;2023-04-25T10:11:55;0.10;;;0.10;;
13002;SDS011;66869;57.706;11.922;2023-04-25T10:14:21;0.20;;;0.10;;
13002;SDS011;66869;57.706;11.922;2023-04-25T10:16:47;0.20;;;0.10;;
13002;SDS011;66869;57.706;11.922;2023-04-25T10:19:12;0.08;;;0.08;;
13002;SDS011;66869;57.706;11.922;2023-04-25T10:21:55;0.17;;;0.10;;
13002;SDS011;66869;57.706;11.922;2023-04-25T10:24:23;0.10;;;0.10;;
13002;SDS011;66869;57.706;11.922;2023-04-25T10:26:49;0.95;;;0.10;;
13002;SDS011;66869;57.706;11.922;2023-04-25T10:29:24;0.00;;;0.00;;
13002;SDS011;66869;57.706;11.922;2023-04-25T10:31:50;0.32;;;0.20;;
13002;SDS011;66869;57.706;11.922;2023-04-25T10:34:15;0.10;;;0.10;;
13002;SDS011;66869;57.706;11.922;2023-04-25T10:36:41;0.28;;;0.15;;
13002;SDS011;66869;57.706;11.922;2023-04-25T10:39:07;0.20;;;0.20;;
13002;SDS011;66869;57.706;11.922;2023-04-25T10:41:46;0.10;;;0.10;;
13002;SDS011;66869;57.706;11.922;2023-04-25T10:44:13;0.25;;;0.20;;
13002;SDS011;66869;57.706;11.922;2023-04-25T10:46:38;0.05;;;0.05;;
13002;SDS011;66869;57.706;11.922;2023-04-25T10:49:03;0.10;;;0.10;;
13002;SDS011;66869;57.706;11.922;2023-04-25T10:51:32;0.00;;;0.00;;
13002;SDS011;66869;57.706;11.922;2023-04-25T10:54:02;0.10;;;0.10;;
13002;SDS011;66869;57.706;11.922;2023-04-25T10:56:31;0.10;;;0.03;;
13002;SDS011;66869;57.706;11.922;2023-04-25T11:01:35;0.25;;;0.15;;
13002;SDS011;66869;57.706;11.922;2023-04-25T11:04:01;0.03;;;0.03;;
13002;SDS011;66869;57.706;11.922;2023-04-25T11:06:32;0.20;;;0.13;;
13002;SDS011;66869;57.706;11.922;2023-04-25T11:09:02;0.17;;;0.03;;
13002;SDS011;66869;57.706;11.922;2023-04-25T11:11:28;0.10;;;0.10;;
13002;SDS011;66869;57.706;11.922;2023-04-25T11:13:53;0.10;;;0.10;;
13002;SDS011;66869;57.706;11.922;2023-04-25T11:16:19;0.00;;;0.00;;
13002;SDS011;66869;57.706;11.922;2023-04-25T11:18:44;0.55;;;0.10;;
13002;SDS011;66869;57.706;11.922;2023-04-25T11:21:10;0.00;;;0.00;;
13002;SDS011;66869;57.706;11.922;2023-04-25T11:23:36;0.20;;;0.20;;
13002;SDS011;66869;57.706;11.922;2023-04-25T11:26:02;0.10;;;0.10;;
13002;SDS011;66869;57.706;11.922;2023-04-25T11:28:27;0.10;;;0.10;;
13002;SDS011;66869;57.706;11.922;2023-04-25T11:30:53;0.20;;;0.20;;
13002;SDS011;66869;57.706;11.922;2023-04-25T11:33:22;0.10;;;0.10;;
13002;SDS011;66869;57.706;11.922;2023-04-25T11:35:48;0.43;;;0.10;;
13002;SDS011;66869;57.706;11.922;2023-04-25T11:38:13;0.00;;;0.00;;
13002;SDS011;66869;57.706;11.922;2023-04-25T11:40:39;0.15;;;0.15;;
13002;SDS011;66869;57.706;11.922;2023-04-25T11:43:05;0.10;;;0.10;;
13002;SDS011;66869;57.706;11.922;2023-04-25T11:45:30;0.10;;;0.10;;
13002;SDS011;66869;57.706;11.922;2023-04-25T11:47:56;0.00;;;0.00;;
13002;SDS011;66869;57.706;11.922;2023-04-25T11:50:21;0.17;;;0.17;;
13002;SDS011;66869;57.706;11.922;2023-04-25T11:52:47;0.10;;;0.10;;
13002;SDS011;66869;57.706;11.922;2023-04-25T11:55:13;0.10;;;0.10;;
13002;SDS011;66869;57.706;11.922;2023-04-25T11:57:39;0.08;;;0.08;;
13002;SDS011;66869;57.706;11.922;2023-04-25T12:00:15;0.10;;;0.10;;
13002;SDS011;66869;57.706;11.922;2023-04-25T12:02:46;0.88;;;0.20;;
13002;SDS011;66869;57.706;11.922;2023-04-25T12:05:12;0.20;;;0.20;;
13002;SDS011;66869;57.706;11.922;2023-04-25T12:07:37;0.32;;;0.13;;
13002;SDS011;66869;57.706;11.922;2023-04-25T12:12:32;0.10;;;0.10;;
13002;SDS011;66869;57.706;11.922;2023-04-25T12:15:07;0.10;;;0.10;;
13002;SDS011;66869;57.706;11.922;2023-04-25T12:17:33;0.10;;;0.10;;
13002;SDS011;66869;57.706;11.922;2023-04-25T12:19:58;0.30;;;0.10;;
13002;SDS011;66869;57.706;11.922;2023-04-25T12:22:24;0.00;;;0.00;;
13002;SDS011;66869;57.706;11.922;2023-04-25T12:24:50;0.40;;;0.20;;
13002;SDS011;66869;57.706;11.922;2023-04-25T12:27:16;0.10;;;0.10;;
13002;SDS011;66869;57.706;11.922;2023-04-25T12:29:49;0.10;;;0.10;;
13002;SDS011;66869;57.706;11.922;2023-04-25T12:32:15;0.52;;;0.15;;
13002;SDS011;66869;57.706;11.922;2023-04-25T12:34:41;0.55;;;0.28;;
13002;SDS011;66869;57.706;11.922;2023-04-25T12:37:07;0.10;;;0.10;;
13002;SDS011;66869;57.706;11.922;2023-04-25T12:39:32;0.10;;;0.10;;
13002;SDS011;66869;57.706;11.922;2023-04-25T12:41:57;0.22;;;0.10;;
13002;SDS011;66869;57.706;11.922;2023-04-25T12:44:24;0.20;;;0.20;;
13002;SDS011;66869;57.706;11.922;2023-04-25T12:46:49;0.05;;;0.05;;
13002;SDS011;66869;57.706;11.922;2023-04-25T12:49:15;0.10;;;0.10;;
13002;SDS011;66869;57.706;11.922;2023-04-25T12:51:40;0.00;;;0.00;;
13002;SDS011;66869;57.706;11.922;2023-04-25T12:54:07;0.10;;;0.10;;
13002;SDS011;66869;57.706;11.922;2023-04-25T12:56:33;0.10;;;0.10;;
13002;SDS011;66869;57.706;11.922;2023-04-25T12:58:58;0.20;;;0.17;;
13002;SDS011;66869;57.706;11.922;2023-04-25T13:01:24;0.00;;;0.00;;
13002;SDS011;66869;57.706;11.922;2023-04-25T13:03:50;0.10;;;0.10;;
13002;SDS011;66869;57.706;11.922;2023-04-25T13:06:15;0.17;;;0.10;;
13002;SDS011;66869;57.706;11.922;2023-04-25T13:08:41;0.90;;;0.10;;
13002;SDS011;66869;57.706;11.922;2023-04-25T13:11:07;0.00;;;0.00;;
13002;SDS011;66869;57.706;11.922;2023-04-25T13:13:32;0.20;;;0.10;;
13002;SDS011;66869;57.706;11.922;2023-04-25T13:16:00;0.10;;;0.10;;
13002;SDS011;66869;57.706;11.922;2023-04-25T13:18:25;0.30;;;0.10;;
13002;SDS011;66869;57.706;11.922;2023-04-25T13:20:54;0.47;;;0.20;;
13002;SDS011;66869;57.706;11.922;2023-04-25T13:23:20;0.10;;;0.10;;
13002;SDS011;66869;57.706;11.922;2023-04-25T13:25:45;0.17;;;0.10;;
13002;SDS011;66869;57.706;11.922;2023-04-25T13:28:11;0.10;;;0.10;;
13002;SDS011;66869;57.706;11.922;2023-04-25T13:30:36;0.20;;;0.10;;
13002;SDS011;66869;57.706;11.922;2023-04-25T13:33:02;0.10;;;0.10;;
13002;SDS011;66869;57.706;11.922;2023-04-25T13:35:28;0.20;;;0.20;;
13002;SDS011;66869;57.706;11.922;2023-04-25T13:37:54;0.43;;;0.10;;
13002;SDS011;66869;57.706;11.922;2023-04-25T13:40:19;1.27;;;0.10;;
13002;SDS011;66869;57.706;11.922;2023-04-25T13:42:45;0.10;;;0.10;;
13002;SDS011;66869;57.706;11.922;2023-04-25T13:45:10;0.25;;;0.10;;
13002;SDS011;66869;57.706;11.922;2023-04-25T13:47:36;0.10;;;0.10;;
13002;SDS011;66869;57.706;11.922;2023-04-25T13:50:01;0.10;;;0.10;;
13002;SDS011;66869;57.706;11.922;2023-04-25T13:52:28;0.10;;;0.10;;
13002;SDS011;66869;57.706;11.922;2023-04-25T13:54:53;0.13;;;0.10;;
13002;SDS011;66869;57.706;11.922;2023-04-25T13:57:19;0.10;;;0.10;;
13002;SDS011;66869;57.706;11.922;2023-04-25T13:59:44;0.10;;;0.10;;
13002;SDS011;66869;57.706;11.922;2023-04-25T14:02:10;0.13;;;0.08;;
13002;SDS011;66869;57.706;11.922;2023-04-25T14:04:35;0.30;;;0.13;;
13002;SDS011;66869;57.706;11.922;2023-04-25T14:07:02;0.38;;;0.10;;
13002;SDS011;66869;57.706;11.922;2023-04-25T14:09:27;0.00;;;0.00;;
13002;SDS011;66869;57.706;11.922;2023-04-25T14:11:52;0.30;;;0.20;;
13002;SDS011;66869;57.706;11.922;2023-04-25T14:14:18;0.10;;;0.10;;
13002;SDS011;66869;57.706;11.922;2023-04-25T14:16:43;0.17;;;0.17;;
13002;SDS011;66869;57.706;11.922;2023-04-25T14:19:09;0.00;;;0.00;;
13002;SDS011;66869;57.706;11.922;2023-04-25T14:21:34;0.00;;;0.00;;
13002;SDS011;66869;57.706;11.922;2023-04-25T14:24:00;0.50;;;0.20;;
13002;SDS011;66869;57.706;11.922;2023-04-25T14:26:25;0.10;;;0.10;;
13002;SDS011;66869;57.706;11.922;2023-04-25T14:28:51;0.20;;;0.00;;
13002;SDS011;66869;57.706;11.922;2023-04-25T14:31:16;0.17;;;0.10;;